Time;durP1;ratioP1;P1;durP2;ratioP2;P2;SDS_P1;SDS_P2;PMS_P1;PMS_P2;Temp;Humidity;BMP_temperature;BMP_pressure;BME280_temperature;BME280_humidity;BME280_pressure;Samples;Min_cycle;Max_cycle;Signal;HPM_P1;HPM_P2
2021/12/17 00:00:04;;;;;;;;;;;;;;;4.39;100.00;101263.41;1753274;80;20640;-82
2021/12/17 00:05:15;;;;;;;;;;;;;;;4.41;100.00;101255.00;1752864;80;20107;-81
2021/12/17 00:07:44;;;;;;;;;;;;;;;4.44;100.00;101256.12;1745068;80;20225;-80
2021/12/17 00:10:13;;;;;;;;;;;;;;;4.47;100.00;101266.41;1745592;80;21284;-78
2021/12/17 00:12:38;;;;;;;;;;;;;;;4.49;100.00;101264.58;1744062;80;20266;-82
2021/12/17 00:15:05;;;;;;;;;;;;;;;4.39;100.00;101262.10;1745218;80;20191;-80
2021/12/17 00:17:36;;;;;;;;;;;;;;;4.51;100.00;101265.31;1738371;80;20471;-80
2021/12/17 00:50:05;;;;;;;;;;;;;;;4.57;100.00;101274.11;1736083;80;21050;-87
2021/12/17 00:52:26;;;;;;;;;;;;;;;4.61;100.00;101286.06;1740125;80;20195;-82
2021/12/17 00:54:51;;;;;;;;;;;;;;;4.60;100.00;101275.25;1750045;80;20154;-79
2021/12/17 00:57:22;;;;;;;;;;;;;;;4.58;100.00;101277.09;1747040;80;20215;-90
2021/12/17 00:59:50;;;;;;;;;;;;;;;4.51;100.00;101279.70;1746609;80;20178;-79
2021/12/17 01:02:17;;;;;;;;;;;;;;;4.47;100.00;101263.80;1747927;80;22204;-84
2021/12/17 01:04:47;;;;;;;;;;;;;;;4.45;100.00;101272.21;1746894;80;20247;-84
2021/12/17 01:07:13;;;;;;;;;;;;;;;4.41;100.00;101265.02;1752038;80;20142;-79
2021/12/17 01:09:40;;;;;;;;;;;;;;;4.51;100.00;101257.47;1744186;80;20372;-81
2021/12/17 01:12:06;;;;;;;;;;;;;;;4.53;100.00;101258.21;1742746;80;20165;-79
2021/12/17 01:14:32;;;;;;;;;;;;;;;4.42;100.00;101265.84;1745468;80;21129;-81
2021/12/17 01:16:59;;;;;;;;;;;;;;;4.49;100.00;101260.17;1751993;80;20236;-80
2021/12/17 01:22:13;;;;;;;;;;;;;;;4.51;100.00;101254.86;1740953;80;20656;-86
2021/12/17 01:24:40;;;;;;;;;;;;;;;4.56;100.00;101251.49;1747423;80;20216;-80
2021/12/17 01:35:21;;;;;;;;;;;;;;;4.48;100.00;101238.03;1745332;80;20127;-81
2021/12/17 01:43:05;;;;;;;;;;;;;;;4.58;100.00;101247.48;1745081;80;20176;-84
2021/12/17 01:45:36;;;;;;;;;;;;;;;4.56;100.00;101258.03;1753585;80;20159;-78
2021/12/17 01:48:02;;;;;;;;;;;;;;;4.55;100.00;101272.03;1743623;80;20508;-77
2021/12/17 02:01:27;;;;;;;;;;;;;;;4.52;100.00;101285.29;1749264;81;20183;-79
2021/12/17 02:03:52;;;;;;;;;;;;;;;4.57;100.00;101257.11;1736867;81;20162;-83
2021/12/17 02:06:19;;;;;;;;;;;;;;;4.61;100.00;101265.61;1738762;81;21023;-78
2021/12/17 02:08:47;;;;;;;;;;;;;;;4.64;100.00;101259.72;1739218;81;20670;-78
2021/12/17 02:20:27;;;;;;;;;;;;;;;4.68;100.00;101246.84;1745263;81;20120;-81
2021/12/17 02:32:48;;;;;;;;;;;;;;;4.68;100.00;101228.53;1742419;81;20136;-80
2021/12/17 02:37:49;;;;;;;;;;;;;;;4.80;100.00;101231.34;1741651;81;20477;-80
2021/12/17 02:45:36;;;;;;;;;;;;;;;4.74;100.00;101223.86;1742701;81;20177;-79
2021/12/17 02:48:05;;;;;;;;;;;;;;;4.78;100.00;101220.13;1736256;81;20187;-85
2021/12/17 02:50:31;;;;;;;;;;;;;;;4.78;100.00;101217.52;1736835;80;20271;-80
2021/12/17 02:53:01;;;;;;;;;;;;;;;4.72;100.00;101225.25;1742797;81;20469;-78
2021/12/17 02:55:27;;;;;;;;;;;;;;;4.78;100.00;101230.60;1748255;81;20247;-85
2021/12/17 02:57:54;;;;;;;;;;;;;;;4.78;100.00;101237.14;1741594;81;21231;-87
2021/12/17 03:00:20;;;;;;;;;;;;;;;4.70;100.00;101224.99;1744351;81;20186;-82
2021/12/17 03:02:48;;;;;;;;;;;;;;;4.73;100.00;101228.73;1746299;81;20134;-84
2021/12/17 03:05:14;;;;;;;;;;;;;;;4.75;100.00;101213.77;1745422;80;20150;-79
2021/12/17 03:07:44;;;;;;;;;;;;;;;4.85;100.00;101212.30;1740218;81;20202;-79
2021/12/17 03:10:10;;;;;;;;;;;;;;;4.82;100.00;101232.11;1740665;81;20592;-79
2021/12/17 03:12:53;;;;;;;;;;;;;;;4.74;100.00;101221.23;1742197;81;20585;-79
2021/12/17 03:15:34;;;;;;;;;;;;;;;4.72;100.00;101216.09;1738487;81;20226;-81
2021/12/17 03:25:53;;;;;;;;;;;;;;;4.67;100.00;101215.06;1739889;81;20181;-81
2021/12/17 03:28:19;;;;;;;;;;;;;;;4.66;100.00;101224.31;1743390;81;20172;-79
2021/12/17 03:30:47;;;;;;;;;;;;;;;4.62;100.00;101221.05;1750462;81;20171;-79
2021/12/17 03:33:12;;;;;;;;;;;;;;;4.58;100.00;101214.30;1742060;81;20182;-80
2021/12/17 03:35:38;;;;;;;;;;;;;;;4.59;100.00;101213.37;1746438;81;21032;-78
2021/12/17 03:38:06;;;;;;;;;;;;;;;4.54;100.00;101191.03;1716018;81;20504;-80
2021/12/17 03:40:33;;;;;;;;;;;;;;;4.62;100.00;101192.75;1748683;80;20178;-79
2021/12/17 03:43:04;;;;;;;;;;;;;;;4.56;100.00;101191.33;1743103;80;20210;-80
2021/12/17 03:45:30;;;;;;;;;;;;;;;4.52;100.00;101191.12;1741434;81;20176;-79
2021/12/17 03:47:56;;;;;;;;;;;;;;;4.49;100.00;101200.49;1739441;81;21062;-81
2021/12/17 03:50:21;;;;;;;;;;;;;;;4.58;100.00;101193.37;1745889;81;20139;-79
2021/12/17 03:52:47;;;;;;;;;;;;;;;4.59;100.00;101192.45;1746555;80;21484;-81
2021/12/17 03:55:13;;;;;;;;;;;;;;;4.63;100.00;101187.42;1742488;81;20339;-83
2021/12/17 03:57:41;;;;;;;;;;;;;;;4.64;100.00;101204.78;1744536;81;20162;-78
2021/12/17 04:00:08;;;;;;;;;;;;;;;4.71;100.00;101190.02;1741708;80;21020;-81
2021/12/17 04:02:35;;;;;;;;;;;;;;;4.80;100.00;101193.39;1726012;81;20493;-82
2021/12/17 04:05:02;;;;;;;;;;;;;;;4.66;100.00;101182.45;1737618;81;20131;-83
2021/12/17 04:07:28;;;;;;;;;;;;;;;4.67;100.00;101184.98;1746292;80;20631;-78
2021/12/17 04:09:53;;;;;;;;;;;;;;;4.68;100.00;101184.05;1751260;81;20176;-82
2021/12/17 04:12:28;;;;;;;;;;;;;;;4.62;100.00;101187.03;1751700;81;21201;-79
2021/12/17 04:14:49;;;;;;;;;;;;;;;4.62;100.00;101183.59;1749459;81;20127;-78
2021/12/17 04:17:22;;;;;;;;;;;;;;;4.59;100.00;101172.00;1746440;81;20170;-86
2021/12/17 04:19:42;;;;;;;;;;;;;;;4.64;100.00;101172.08;1744497;81;20123;-79
2021/12/17 04:22:08;;;;;;;;;;;;;;;4.60;100.00;101191.53;1722419;81;20221;-78
2021/12/17 04:24:34;;;;;;;;;;;;;;;4.61;100.00;101169.65;1751809;81;21073;-78
2021/12/17 04:26:59;;;;;;;;;;;;;;;4.59;100.00;101155.00;1747031;81;20162;-78
2021/12/17 04:29:26;;;;;;;;;;;;;;;4.68;100.00;101177.98;1749535;81;20253;-78
2021/12/17 04:31:55;;;;;;;;;;;;;;;4.65;100.00;101171.16;1746450;81;20670;-80
2021/12/17 04:34:20;;;;;;;;;;;;;;;4.68;100.00;101172.76;1744362;81;20457;-79
2021/12/17 04:36:51;;;;;;;;;;;;;;;4.71;100.00;101174.33;1747151;80;21132;-79
2021/12/17 04:39:18;;;;;;;;;;;;;;;4.59;100.00;101184.61;1744701;80;20151;-78
2021/12/17 04:41:51;;;;;;;;;;;;;;;4.62;100.00;101194.05;1751609;81;20141;-78
2021/12/17 04:44:18;;;;;;;;;;;;;;;4.70;100.00;101178.73;1745383;81;20178;-78
2021/12/17 04:57:29;;;;;;;;;;;;;;;4.65;100.00;101208.27;1743814;81;20167;-81
2021/12/17 04:59:50;;;;;;;;;;;;;;;4.59;100.00;101201.61;1739505;81;20138;-80
2021/12/17 05:02:17;;;;;;;;;;;;;;;4.53;100.00;101197.22;1745856;81;21017;-82
2021/12/17 05:04:43;;;;;;;;;;;;;;;4.54;100.00;101210.20;1751447;81;20151;-77
2021/12/17 05:07:12;;;;;;;;;;;;;;;4.49;100.00;101203.11;1747403;80;20468;-77
2021/12/17 05:09:46;;;;;;;;;;;;;;;4.53;100.00;101212.91;1738068;81;20481;-77
2021/12/17 05:23:00;;;;;;;;;;;;;;;4.38;100.00;101215.95;1725648;81;20175;-80
2021/12/17 05:25:22;;;;;;;;;;;;;;;4.49;100.00;101224.86;1738883;81;20162;-77
2021/12/17 05:27:49;;;;;;;;;;;;;;;4.58;100.00;101224.77;1747616;81;21161;-77
2021/12/17 05:30:16;;;;;;;;;;;;;;;4.71;100.00;101229.27;1743270;81;20096;-76
2021/12/17 05:32:42;;;;;;;;;;;;;;;4.57;100.00;101233.56;1752034;81;20202;-80
2021/12/17 05:35:09;;;;;;;;;;;;;;;4.66;100.00;101229.55;1745864;81;20488;-78
2021/12/17 05:37:36;;;;;;;;;;;;;;;4.67;100.00;101222.08;1749780;81;20222;-81
2021/12/17 05:40:05;;;;;;;;;;;;;;;4.66;100.00;101218.64;1739776;81;21013;-80
2021/12/17 05:42:33;;;;;;;;;;;;;;;4.81;100.00;101230.41;1737960;81;20186;-77
2021/12/17 05:45:07;;;;;;;;;;;;;;;4.71;100.00;101221.42;1738001;81;20152;-79
2021/12/17 05:47:27;;;;;;;;;;;;;;;4.66;100.00;101226.93;1737304;81;20147;-85
2021/12/17 05:49:53;;;;;;;;;;;;;;;4.76;100.00;101218.09;1710878;81;20504;-80
2021/12/17 05:52:20;;;;;;;;;;;;;;;4.75;100.00;101204.62;1747142;81;21106;-77
2021/12/17 05:54:46;;;;;;;;;;;;;;;4.70;100.00;101215.36;1746462;81;20135;-81
2021/12/17 05:57:11;;;;;;;;;;;;;;;4.68;100.00;101212.00;1748324;81;20178;-82
2021/12/17 05:59:37;;;;;;;;;;;;;;;4.66;100.00;101206.86;1744388;80;20798;-78
2021/12/17 06:02:09;;;;;;;;;;;;;;;4.48;100.00;101198.32;1739795;81;20233;-78
2021/12/17 06:04:31;;;;;;;;;;;;;;;4.35;100.00;101205.67;1743847;81;20232;-77
2021/12/17 06:06:57;;;;;;;;;;;;;;;4.49;100.00;101204.41;1737644;81;20233;-85
2021/12/17 06:09:23;;;;;;;;;;;;;;;4.43;100.00;101213.93;1751835;81;20116;-78
2021/12/17 06:11:48;;;;;;;;;;;;;;;4.44;100.00;101201.20;1741696;80;20153;-79
2021/12/17 06:14:14;;;;;;;;;;;;;;;4.50;100.00;101208.69;1742531;81;20151;-79
2021/12/17 06:16:40;;;;;;;;;;;;;;;4.52;100.00;101217.28;1740821;81;22049;-79
2021/12/17 06:19:06;;;;;;;;;;;;;;;4.46;100.00;101216.36;1741537;80;20185;-83
2021/12/17 06:21:32;;;;;;;;;;;;;;;4.52;100.00;101232.98;1746602;80;20133;-82
2021/12/17 06:24:00;;;;;;;;;;;;;;;4.46;100.00;101247.75;1746392;80;20212;-81
2021/12/17 06:26:28;;;;;;;;;;;;;;;4.49;100.00;101243.65;1744739;81;20476;-82
2021/12/17 06:28:56;;;;;;;;;;;;;;;4.33;100.00;101253.30;1747264;81;21070;-79
2021/12/17 06:31:23;;;;;;;;;;;;;;;4.35;100.00;101230.52;1749393;81;20151;-78
2021/12/17 06:33:49;;;;;;;;;;;;;;;4.42;100.00;101229.23;1744099;81;20608;-80
2021/12/17 06:36:15;;;;;;;;;;;;;;;4.38;100.00;101230.34;1747685;81;20154;-76
2021/12/17 06:38:41;;;;;;;;;;;;;;;4.36;100.00;101240.05;1743507;81;20175;-81
2021/12/17 06:41:07;;;;;;;;;;;;;;;4.19;100.00;101252.31;1719847;81;21922;-80
2021/12/17 06:43:37;;;;;;;;;;;;;;;4.29;100.00;101219.48;1741982;81;20162;-83
2021/12/17 06:46:16;;;;;;;;;;;;;;;4.25;100.00;101221.89;1734002;81;20306;-82
2021/12/17 06:48:29;;;;;;;;;;;;;;;4.33;100.00;101216.70;1739622;81;20124;-80
2021/12/17 06:59:05;;;;;;;;;;;;;;;4.14;100.00;101204.21;1753119;80;20512;-84
2021/12/17 07:08:03;;;;;;;;;;;;;;;4.18;100.00;101191.83;1763456;80;21252;-86
2021/12/17 07:17:58;;;;;;;;;;;;;;;3.97;100.00;101220.50;1752147;80;20191;-81
2021/12/17 07:33:38;;;;;;;;;;;;;;;4.42;100.00;101239.22;1752666;80;20198;-78
2021/12/17 07:36:10;;;;;;;;;;;;;;;4.43;100.00;101247.93;1746589;80;20114;-78
2021/12/17 07:41:04;;;;;;;;;;;;;;;4.46;100.00;101239.91;1744826;80;20193;-76
2021/12/17 07:43:37;;;;;;;;;;;;;;;4.44;100.00;101258.75;1756564;80;20457;-77
2021/12/17 07:45:59;;;;;;;;;;;;;;;4.35;100.00;101250.13;1749135;80;20425;-78
2021/12/17 07:48:30;;;;;;;;;;;;;;;4.36;100.00;101249.20;1760306;80;20130;-79
2021/12/17 07:50:56;;;;;;;;;;;;;;;4.48;100.00;101283.80;1748282;80;20138;-80
2021/12/17 07:53:21;;;;;;;;;;;;;;;4.46;100.00;101250.37;1746344;80;20536;-82
2021/12/17 07:55:49;;;;;;;;;;;;;;;4.50;100.00;101253.16;1754690;80;20142;-80
2021/12/17 07:58:14;;;;;;;;;;;;;;;4.48;100.00;101249.33;1753908;80;21320;-77
2021/12/17 08:00:40;;;;;;;;;;;;;;;4.40;100.00;101271.64;1757438;80;20135;-77
2021/12/17 08:03:10;;;;;;;;;;;;;;;4.39;100.00;101259.48;1760552;80;20697;-79
2021/12/17 08:05:36;;;;;;;;;;;;;;;4.18;100.00;101292.48;1756913;80;20175;-86
2021/12/17 08:08:01;;;;;;;;;;;;;;;4.34;100.00;101273.30;1751075;80;20147;-77
2021/12/17 08:10:28;;;;;;;;;;;;;;;4.41;100.00;101284.63;1761397;80;21315;-77
2021/12/17 08:12:56;;;;;;;;;;;;;;;4.31;100.00;101308.30;1755921;80;20213;-79
2021/12/17 08:15:32;;;;;;;;;;;;;;;4.36;100.00;101296.27;1759536;80;20175;-77
2021/12/17 08:18:24;;;;;;;;;;;;;;;4.34;100.00;101288.52;1756784;80;20213;-78
2021/12/17 08:28:52;;;;;;;;;;;;;;;4.54;100.00;101308.74;1755716;80;20692;-78
2021/12/17 08:31:00;;;;;;;;;;;;;;;4.52;100.00;101304.08;1747155;80;20201;-75
2021/12/17 08:33:28;;;;;;;;;;;;;;;4.41;100.00;101306.00;1753915;80;20234;-78
2021/12/17 08:35:57;;;;;;;;;;;;;;;4.27;100.00;101310.26;1760690;80;20137;-75
2021/12/17 08:38:21;;;;;;;;;;;;;;;4.44;100.00;101322.38;1755911;80;20147;-80
2021/12/17 08:40:51;;;;;;;;;;;;;;;4.39;100.00;101311.31;1756557;80;20146;-83
2021/12/17 08:43:19;;;;;;;;;;;;;;;4.52;100.00;101311.45;1748333;80;20527;-81
2021/12/17 08:45:44;;;;;;;;;;;;;;;4.37;100.00;101323.65;1754462;80;20202;-79
2021/12/17 08:48:10;;;;;;;;;;;;;;;4.38;100.00;101326.66;1750599;80;20597;-81
2021/12/17 08:50:39;;;;;;;;;;;;;;;4.52;100.00;101314.54;1749595;80;20634;-80
2021/12/17 08:53:04;;;;;;;;;;;;;;;4.59;99.92;101318.02;1733205;81;20222;-79
2021/12/17 08:55:31;;;;;;;;;;;;;;;4.46;100.00;101330.97;1740214;81;20159;-78
2021/12/17 08:57:57;;;;;;;;;;;;;;;4.37;99.64;101324.13;1741492;81;20192;-80
2021/12/17 09:00:22;;;;;;;;;;;;;;;4.43;99.90;101325.91;1736899;81;21100;-82
2021/12/17 09:02:48;;;;;;;;;;;;;;;4.48;99.03;101328.27;1719937;81;20510;-78
2021/12/17 09:05:14;;;;;;;;;;;;;;;4.49;98.61;101306.42;1750364;81;20273;-79
2021/12/17 09:07:39;;;;;;;;;;;;;;;4.44;99.38;101311.05;1746790;80;20195;-78
2021/12/17 09:10:08;;;;;;;;;;;;;;;4.48;99.05;101302.11;1746870;81;20132;-83
2021/12/17 09:12:36;;;;;;;;;;;;;;;4.37;99.35;101300.59;1756137;81;21796;-80
2021/12/17 09:15:01;;;;;;;;;;;;;;;4.54;98.70;101282.14;1747604;81;20192;-77
2021/12/17 09:17:28;;;;;;;;;;;;;;;4.47;98.78;101278.19;1751146;81;20140;-78
2021/12/17 09:19:54;;;;;;;;;;;;;;;4.39;99.21;101296.10;1745749;81;20184;-77
2021/12/17 09:22:22;;;;;;;;;;;;;;;4.38;99.98;101285.25;1743554;81;20216;-80
2021/12/17 09:24:48;;;;;;;;;;;;;;;4.24;100.00;101288.20;1744110;81;21052;-79
2021/12/17 09:27:16;;;;;;;;;;;;;;;4.21;100.00;101300.15;1742941;81;20158;-80
2021/12/17 09:29:46;;;;;;;;;;;;;;;4.16;100.00;101278.63;1745566;81;20518;-78
2021/12/17 09:32:11;;;;;;;;;;;;;;;4.30;100.00;101278.70;1747276;81;20623;-80
2021/12/17 09:34:38;;;;;;;;;;;;;;;4.28;100.00;101282.33;1741563;81;20166;-78
2021/12/17 09:37:04;;;;;;;;;;;;;;;4.20;100.00;101277.53;1747563;80;21057;-78
2021/12/17 09:39:31;;;;;;;;;;;;;;;4.17;100.00;101273.78;1735778;81;20411;-79
2021/12/17 09:41:56;;;;;;;;;;;;;;;4.23;100.00;101261.67;1743363;81;20269;-79
2021/12/17 09:44:24;;;;;;;;;;;;;;;4.18;100.00;101268.08;1742795;81;20716;-78
2021/12/17 09:46:51;;;;;;;;;;;;;;;4.21;100.00;101269.22;1746037;80;20206;-79
2021/12/17 09:49:17;;;;;;;;;;;;;;;4.24;100.00;101279.05;1746835;81;20113;-78
2021/12/17 09:51:43;;;;;;;;;;;;;;;4.19;100.00;101268.00;1727535;81;20214;-78
2021/12/17 09:54:10;;;;;;;;;;;;;;;4.24;100.00;101273.83;1741361;81;20215;-78
2021/12/17 09:56:37;;;;;;;;;;;;;;;4.34;100.00;101276.75;1710967;81;20579;-77
2021/12/17 09:59:08;;;;;;;;;;;;;;;4.33;100.00;101282.06;1740360;81;20126;-77
2021/12/17 10:01:38;;;;;;;;;;;;;;;4.30;100.00;101283.08;1732828;81;21270;-79
2021/12/17 10:04:31;;;;;;;;;;;;;;;4.32;100.00;101291.70;1724482;81;20114;-83
2021/12/17 10:07:22;;;;;;;;;;;;;;;4.24;100.00;101284.28;1715260;81;20182;-82
2021/12/17 10:09:51;;;;;;;;;;;;;;;4.19;100.00;101269.30;1740581;81;20229;-77
2021/12/17 10:12:19;;;;;;;;;;;;;;;4.27;100.00;101280.19;1739840;81;20156;-82
2021/12/17 10:15:07;;;;;;;;;;;;;;;4.17;100.00;101280.32;1741122;81;21324;-79
2021/12/17 10:17:53;;;;;;;;;;;;;;;4.11;100.00;101272.83;1668644;85;38486;-83
2021/12/17 10:20:20;;;;;;;;;;;;;;;4.18;100.00;101268.95;1665862;85;20235;-81
2021/12/17 10:22:46;;;;;;;;;;;;;;;4.19;100.00;101274.53;1703135;81;20748;-78
2021/12/17 10:25:13;;;;;;;;;;;;;;;4.17;100.00;101256.80;1732317;81;20214;-80
2021/12/17 10:27:42;;;;;;;;;;;;;;;4.19;100.00;101265.38;1731256;81;21250;-76
2021/12/17 10:30:21;;;;;;;;;;;;;;;4.17;100.00;101255.48;1741170;80;20114;-77
2021/12/17 10:32:49;;;;;;;;;;;;;;;4.26;100.00;101252.82;1734191;81;20199;-78
2021/12/17 10:35:25;;;;;;;;;;;;;;;4.37;100.00;101246.98;1733749;81;20285;-84
2021/12/17 10:37:57;;;;;;;;;;;;;;;4.32;100.00;101269.47;1734532;80;20210;-79
2021/12/17 10:40:48;;;;;;;;;;;;;;;4.45;100.00;101252.59;1735554;81;21018;-78
2021/12/17 10:43:26;;;;;;;;;;;;;;;4.43;100.00;101259.70;1690949;83;20143;-78
2021/12/17 10:46:12;;;;;;;;;;;;;;;4.49;100.00;101243.65;1695590;83;20574;-77
2021/12/17 10:48:48;;;;;;;;;;;;;;;4.53;100.00;101256.07;1715717;81;20608;-77
2021/12/17 10:51:19;;;;;;;;;;;;;;;4.53;100.00;101239.07;1745920;80;20627;-76
2021/12/17 10:53:51;;;;;;;;;;;;;;;4.58;100.00;101243.08;1751739;80;20162;-76
2021/12/17 10:56:17;;;;;;;;;;;;;;;4.62;100.00;101227.59;1748211;80;20157;-79
2021/12/17 10:59:02;;;;;;;;;;;;;;;4.50;100.00;101234.85;1752189;80;20229;-81
2021/12/17 11:01:37;;;;;;;;;;;;;;;4.67;100.00;101263.47;1752448;80;20724;-79
2021/12/17 11:04:07;;;;;;;;;;;;;;;4.78;99.73;101227.98;1750079;80;20497;-82
2021/12/17 11:06:54;;;;;;;;;;;;;;;5.00;98.96;101228.38;1749789;80;20977;-81
2021/12/17 11:09:41;;;;;;;;;;;;;;;4.93;98.49;101232.30;1753780;80;20965;-80
2021/12/17 11:12:29;;;;;;;;;;;;;;;4.89;98.48;101242.56;1748345;80;20214;-82
2021/12/17 11:15:10;;;;;;;;;;;;;;;4.93;98.04;101234.08;1749438;80;20542;-81
2021/12/17 11:17:36;;;;;;;;;;;;;;;4.85;98.04;101231.92;1719968;80;20161;-80
2021/12/17 11:20:05;;;;;;;;;;;;;;;4.93;97.63;101232.30;1730111;80;20504;-81
2021/12/17 11:22:31;;;;;;;;;;;;;;;4.95;97.61;101216.02;1752955;80;20138;-80
2021/12/17 11:25:00;;;;;;;;;;;;;;;5.01;97.06;101217.44;1753092;80;20181;-81
2021/12/17 11:27:26;;;;;;;;;;;;;;;5.03;96.71;101220.34;1756057;80;20149;-80
2021/12/17 11:29:53;;;;;;;;;;;;;;;5.01;96.71;101226.12;1752460;80;20166;-81
2021/12/17 11:32:19;;;;;;;;;;;;;;;5.18;96.04;101228.18;1749660;80;21096;-79
2021/12/17 11:34:45;;;;;;;;;;;;;;;5.15;95.54;101234.44;1754939;80;20766;-78
2021/12/17 11:37:11;;;;;;;;;;;;;;;5.15;95.31;101227.06;1759409;80;20166;-79
2021/12/17 11:39:43;;;;;;;;;;;;;;;5.18;95.03;101242.11;1754327;80;20182;-80
2021/12/17 11:42:29;;;;;;;;;;;;;;;5.18;94.92;101217.70;1751661;80;20200;-80
2021/12/17 11:47:42;;;;;;;;;;;;;;;5.22;94.40;101233.62;1747926;80;20204;-77
2021/12/17 11:50:10;;;;;;;;;;;;;;;5.29;94.02;101220.97;1753068;80;20165;-82
2021/12/17 11:52:40;;;;;;;;;;;;;;;5.40;93.70;101216.72;1708496;80;20189;-80
2021/12/17 11:55:35;;;;;;;;;;;;;;;5.46;93.40;101225.16;1749049;80;20181;-81
2021/12/17 11:58:05;;;;;;;;;;;;;;;5.43;93.34;101218.80;1755423;80;21112;-81
2021/12/17 12:00:43;;;;;;;;;;;;;;;5.44;92.76;101218.70;1755308;80;20594;-80
2021/12/17 12:03:20;;;;;;;;;;;;;;;5.45;92.63;101220.84;1744698;80;20230;-80
2021/12/17 12:05:48;;;;;;;;;;;;;;;5.37;92.91;101222.63;1750921;80;20233;-81
2021/12/17 12:08:37;;;;;;;;;;;;;;;5.30;92.83;101245.76;1749430;80;20190;-80
2021/12/17 12:11:07;;;;;;;;;;;;;;;5.27;93.13;101215.83;1751768;80;20628;-80
2021/12/17 12:13:35;;;;;;;;;;;;;;;5.28;93.59;101214.88;1750756;80;20137;-81
2021/12/17 12:16:03;;;;;;;;;;;;;;;5.28;93.53;101229.27;1754108;80;20138;-80
2021/12/17 12:18:43;;;;;;;;;;;;;;;5.34;93.12;101207.94;1747275;80;20190;-81
2021/12/17 12:21:11;;;;;;;;;;;;;;;5.37;93.06;101199.89;1734832;80;20172;-81
2021/12/17 12:23:39;;;;;;;;;;;;;;;5.51;92.38;101211.29;1751485;80;21272;-78
2021/12/17 12:26:14;;;;;;;;;;;;;;;5.23;92.49;101210.40;1753384;80;20522;-75
2021/12/17 12:28:49;;;;;;;;;;;;;;;5.34;91.93;101196.64;1748415;80;20199;-78
2021/12/17 12:31:31;;;;;;;;;;;;;;;5.37;91.84;101210.37;1754953;80;20528;-78
2021/12/17 12:34:17;;;;;;;;;;;;;;;5.38;91.15;101195.03;1756572;80;20689;-79
2021/12/17 12:36:55;;;;;;;;;;;;;;;5.44;91.40;101194.27;1746215;80;21089;-77
2021/12/17 12:39:23;;;;;;;;;;;;;;;5.37;91.27;101197.75;1758702;80;20189;-81
2021/12/17 12:41:58;;;;;;;;;;;;;;;5.28;91.43;101204.39;1754666;80;20198;-86
2021/12/17 12:44:46;;;;;;;;;;;;;;;5.43;91.00;101189.98;1756969;80;20546;-78
2021/12/17 12:47:29;;;;;;;;;;;;;;;5.38;91.12;101196.34;1747668;80;20116;-79
2021/12/17 12:50:07;;;;;;;;;;;;;;;5.36;91.16;101179.03;1747489;80;21156;-78
2021/12/17 12:52:39;;;;;;;;;;;;;;;5.34;90.93;101194.84;1738277;80;20151;-79
2021/12/17 12:55:15;;;;;;;;;;;;;;;5.35;91.03;101200.47;1737927;81;20625;-80
2021/12/17 12:57:48;;;;;;;;;;;;;;;5.36;90.62;101192.99;1735173;81;20650;-80
2021/12/17 13:00:27;;;;;;;;;;;;;;;5.40;90.67;101194.46;1735771;81;20159;-79
2021/12/17 13:02:55;;;;;;;;;;;;;;;5.31;90.75;101194.20;1735940;81;21145;-78
2021/12/17 13:05:21;;;;;;;;;;;;;;;5.24;91.31;101202.92;1742204;81;20135;-79
2021/12/17 13:07:50;;;;;;;;;;;;;;;5.19;91.84;101210.23;1730781;81;20193;-80
2021/12/17 13:10:23;;;;;;;;;;;;;;;5.18;91.69;101236.04;1739178;81;20591;-78
2021/12/17 13:13:14;;;;;;;;;;;;;;;5.27;91.77;101217.14;1738995;81;20199;-78
2021/12/17 13:21:17;;;;;;;;;;;;;;;5.23;91.01;101208.26;1745829;80;20198;-78
2021/12/17 13:23:38;;;;;;;;;;;;;;;5.34;90.75;101210.56;1737708;81;20214;-78
2021/12/17 13:26:07;;;;;;;;;;;;;;;5.14;91.44;101227.54;1740377;81;20182;-77
2021/12/17 13:28:59;;;;;;;;;;;;;;;4.99;91.57;101254.66;1740761;81;21073;-79
2021/12/17 13:31:39;;;;;;;;;;;;;;;4.99;91.99;101221.45;1744145;81;20191;-81
2021/12/17 13:34:16;;;;;;;;;;;;;;;5.00;91.97;101220.53;1743951;81;20618;-78
2021/12/17 13:36:58;;;;;;;;;;;;;;;5.03;91.64;101232.12;1740636;81;21075;-81
2021/12/17 13:39:26;;;;;;;;;;;;;;;4.99;91.95;101229.30;1739334;81;20202;-81
2021/12/17 13:41:52;;;;;;;;;;;;;;;5.01;91.96;101231.36;1738236;81;21972;-80
2021/12/17 13:44:30;;;;;;;;;;;;;;;5.10;91.45;101246.15;1745724;81;20205;-82
2021/12/17 13:47:27;;;;;;;;;;;;;;;4.99;91.29;101233.23;1743169;80;20123;-81
2021/12/17 13:50:02;;;;;;;;;;;;;;;4.97;91.71;101223.33;1747305;81;20170;-81
2021/12/17 13:52:30;;;;;;;;;;;;;;;4.98;91.11;101234.16;1738943;81;20215;-79
2021/12/17 13:54:56;;;;;;;;;;;;;;;4.99;91.09;101237.16;1744711;81;20994;-81
2021/12/17 13:57:23;;;;;;;;;;;;;;;4.96;91.22;101236.52;1693596;83;20789;-79
2021/12/17 13:59:49;;;;;;;;;;;;;;;5.01;91.21;101236.59;1698239;83;20129;-80
2021/12/17 14:02:20;;;;;;;;;;;;;;;4.94;91.41;101228.75;1701219;83;20232;-79
2021/12/17 14:05:06;;;;;;;;;;;;;;;4.97;91.44;101253.88;1693087;83;20152;-79
2021/12/17 14:07:32;;;;;;;;;;;;;;;4.95;91.48;101233.03;1697772;83;21152;-77
2021/12/17 14:10:10;;;;;;;;;;;;;;;5.03;91.60;101226.89;1696211;83;20213;-80
2021/12/17 14:12:39;;;;;;;;;;;;;;;4.94;92.14;101226.58;1694234;83;20140;-79
2021/12/17 14:15:14;;;;;;;;;;;;;;;4.96;92.54;101226.87;1668232;83;20151;-78
2021/12/17 14:17:45;;;;;;;;;;;;;;;4.97;92.61;101220.72;1693239;83;20108;-80
2021/12/17 14:20:13;;;;;;;;;;;;;;;4.95;92.43;101217.33;1697670;83;21952;-81
2021/12/17 14:22:41;;;;;;;;;;;;;;;4.97;92.58;101225.95;1694067;83;20159;-80
2021/12/17 14:25:26;;;;;;;;;;;;;;;5.01;92.13;101226.12;1698019;83;21189;-79
2021/12/17 14:27:52;;;;;;;;;;;;;;;4.93;92.49;101244.55;1692734;83;20176;-79
2021/12/17 14:30:28;;;;;;;;;;;;;;;4.93;93.23;101224.45;1687303;83;20218;-80
2021/12/17 14:32:53;;;;;;;;;;;;;;;4.87;93.23;101233.98;1693229;83;20164;-81
2021/12/17 14:35:42;;;;;;;;;;;;;;;4.97;93.19;101228.57;1698351;83;20163;-81
2021/12/17 14:38:07;;;;;;;;;;;;;;;4.92;93.54;101231.91;1693737;83;20659;-79
2021/12/17 14:40:57;;;;;;;;;;;;;;;4.79;94.28;101237.53;1698980;83;20128;-79
2021/12/17 14:43:08;;;;;;;;;;;;;;;4.80;94.09;101228.72;1683837;83;20683;-82
2021/12/17 14:45:41;;;;;;;;;;;;;;;4.77;94.49;101230.22;1693080;83;21041;-82
2021/12/17 14:48:17;;;;;;;;;;;;;;;4.90;94.13;101233.79;1694118;83;20604;-82
2021/12/17 15:04:45;;;;;;;;;;;;;;;5.07;92.87;101239.31;1657262;85;20137;-79
2021/12/17 15:07:11;;;;;;;;;;;;;;;5.00;93.33;101261.10;1657365;85;20119;-78
2021/12/17 15:09:39;;;;;;;;;;;;;;;4.99;93.43;101238.95;1660122;85;20908;-79
2021/12/17 15:12:23;;;;;;;;;;;;;;;5.08;93.32;101254.55;1656800;85;20185;-80
2021/12/17 15:14:32;;;;;;;;;;;;;;;5.03;93.42;101258.30;1664356;85;20185;-80
2021/12/17 15:16:58;;;;;;;;;;;;;;;5.02;93.21;101268.39;1669978;85;20137;-80
2021/12/17 15:19:24;;;;;;;;;;;;;;;5.12;92.87;101249.50;1661350;85;20189;-79
2021/12/17 15:21:49;;;;;;;;;;;;;;;5.08;92.90;101249.31;1667107;85;20441;-78
2021/12/17 15:24:15;;;;;;;;;;;;;;;5.12;92.75;101255.57;1664593;85;21308;-79
2021/12/17 15:26:40;;;;;;;;;;;;;;;5.16;92.51;101257.08;1666426;85;20526;-80
2021/12/17 15:29:06;;;;;;;;;;;;;;;5.09;92.76;101254.92;1668331;85;20222;-79
2021/12/17 15:31:32;;;;;;;;;;;;;;;5.10;92.74;101234.37;1665625;85;21058;-79
2021/12/17 15:33:57;;;;;;;;;;;;;;;5.16;92.78;101244.47;1666725;84;20208;-79
2021/12/17 15:36:23;;;;;;;;;;;;;;;5.12;92.73;101250.34;1657738;85;21168;-79
2021/12/17 15:38:48;;;;;;;;;;;;;;;5.20;92.25;101255.11;1663367;85;20170;-78
2021/12/17 15:41:14;;;;;;;;;;;;;;;5.24;92.09;101259.70;1666669;85;20142;-79
2021/12/17 15:43:40;;;;;;;;;;;;;;;5.17;92.17;101266.63;1657381;85;20573;-79
2021/12/17 15:46:05;;;;;;;;;;;;;;;5.20;92.07;101236.77;1662158;85;20158;-80
2021/12/17 15:48:31;;;;;;;;;;;;;;;5.17;92.28;101247.44;1654453;85;21076;-80
2021/12/17 15:50:56;;;;;;;;;;;;;;;5.21;91.91;101264.17;1661510;85;20652;-80
2021/12/17 15:53:22;;;;;;;;;;;;;;;5.31;91.80;101256.59;1681116;83;20189;-79
2021/12/17 15:55:48;;;;;;;;;;;;;;;5.26;91.57;101267.83;1678965;83;20929;-80